createdAt,value
2022-11-22T00:00:14.216Z,4.55
2022-11-22T00:02:40.660Z,4.82
2022-11-22T00:05:07.644Z,4.07
2022-11-22T00:07:34.267Z,4.35
2022-11-22T00:10:00.867Z,5.65
2022-11-22T00:12:27.340Z,4.32
2022-11-22T00:14:56.823Z,4.53
2022-11-22T00:17:23.696Z,4.85
2022-11-22T00:19:50.192Z,4.60
2022-11-22T00:22:16.716Z,4.20
2022-11-22T00:24:44.312Z,4.57
2022-11-22T00:27:10.889Z,5.10
2022-11-22T00:29:37.354Z,4.60
2022-11-22T00:32:04.317Z,4.60
2022-11-22T00:34:30.825Z,4.85
2022-11-22T00:36:57.336Z,5.00
2022-11-22T00:39:23.802Z,4.97
2022-11-22T00:41:50.511Z,5.05
2022-11-22T00:44:16.974Z,5.75
2022-11-22T00:46:43.435Z,5.03
2022-11-22T00:49:10.009Z,5.93
2022-11-22T00:51:36.544Z,6.00
2022-11-22T00:54:03.148Z,5.22
2022-11-22T00:56:29.740Z,6.07
2022-11-22T00:58:56.191Z,5.20
2022-11-22T01:01:22.735Z,5.28
2022-11-22T01:03:49.300Z,4.97
2022-11-22T01:06:15.788Z,5.30
2022-11-22T01:08:42.520Z,5.20
2022-11-22T01:11:09.179Z,4.93
2022-11-22T01:13:35.805Z,5.15
2022-11-22T01:16:04.729Z,5.43
2022-11-22T01:18:32.247Z,5.60
2022-11-22T01:20:59.667Z,5.43
2022-11-22T01:23:26.611Z,5.30
2022-11-22T01:25:53.164Z,5.68
2022-11-22T01:28:19.998Z,5.28
2022-11-22T01:30:51.187Z,5.43
2022-11-22T01:33:18.287Z,5.30
2022-11-22T01:35:45.313Z,4.63
2022-11-22T01:38:12.054Z,5.05
2022-11-22T01:40:38.777Z,5.25
2022-11-22T01:43:16.138Z,5.40
2022-11-22T01:45:45.945Z,5.22
2022-11-22T01:48:12.383Z,4.97
2022-11-22T01:50:43.037Z,5.53
2022-11-22T01:53:15.032Z,5.07
2022-11-22T01:55:42.279Z,4.72
2022-11-22T01:58:10.498Z,4.60
2022-11-22T02:00:38.845Z,4.30
2022-11-22T02:03:09.583Z,4.72
2022-11-22T02:05:36.302Z,4.40
2022-11-22T02:08:15.469Z,4.30
2022-11-22T02:10:49.231Z,4.80
2022-11-22T02:13:18.045Z,4.53
2022-11-22T02:15:44.527Z,3.88
2022-11-22T02:18:11.218Z,3.72
2022-11-22T02:20:39.394Z,4.30
2022-11-22T02:23:10.714Z,3.88
2022-11-22T02:25:37.190Z,3.65
2022-11-22T02:28:04.872Z,4.00
2022-11-22T02:30:31.376Z,3.85
2022-11-22T02:32:58.088Z,3.67
2022-11-22T02:35:27.130Z,3.65
2022-11-22T02:38:09.316Z,4.18
2022-11-22T02:40:53.163Z,3.95
2022-11-22T02:43:26.943Z,3.40
2022-11-22T02:45:53.912Z,3.53
2022-11-22T02:48:20.711Z,3.50
2022-11-22T02:50:47.256Z,4.57
2022-11-22T02:53:14.267Z,3.83
2022-11-22T02:55:40.996Z,3.85
2022-11-22T02:58:07.714Z,3.53
2022-11-22T03:00:36.594Z,3.92
2022-11-22T03:03:03.188Z,3.33
2022-11-22T03:05:29.762Z,3.60
2022-11-22T03:07:56.267Z,4.00
2022-11-22T03:10:22.875Z,3.38
2022-11-22T03:12:49.355Z,3.72
2022-11-22T03:15:16.001Z,3.72
2022-11-22T03:17:42.536Z,3.40
2022-11-22T03:20:09.489Z,3.70
2022-11-22T03:22:36.202Z,3.80
2022-11-22T03:25:02.754Z,3.70
2022-11-22T03:27:29.387Z,3.80
2022-11-22T03:29:59.099Z,4.10
2022-11-22T03:32:25.601Z,3.83
2022-11-22T03:34:52.104Z,4.20
2022-11-22T03:37:18.669Z,3.55
2022-11-22T03:39:45.188Z,4.05
2022-11-22T03:42:13.620Z,3.72
2022-11-22T03:44:43.293Z,3.30
2022-11-22T03:47:09.786Z,2.83
2022-11-22T03:49:36.296Z,3.20
2022-11-22T03:52:02.861Z,3.75
2022-11-22T03:54:29.313Z,4.38
2022-11-22T03:56:55.759Z,3.53
2022-11-22T03:59:22.279Z,3.67
2022-11-22T04:01:48.900Z,3.53
2022-11-22T04:04:15.464Z,3.80
2022-11-22T04:06:41.946Z,3.25
2022-11-22T04:09:08.755Z,3.65
2022-11-22T04:11:35.383Z,3.67
2022-11-22T04:14:20.354Z,3.67
2022-11-22T04:16:46.836Z,2.90
2022-11-22T04:19:13.371Z,3.47
2022-11-22T04:21:39.865Z,3.67
2022-11-22T04:24:27.441Z,3.50
2022-11-22T04:26:54.804Z,3.00
2022-11-22T04:29:21.856Z,3.22
2022-11-22T04:32:07.986Z,3.17
2022-11-22T04:34:34.755Z,3.30
2022-11-22T04:37:02.095Z,3.85
2022-11-22T04:39:28.979Z,3.08
2022-11-22T04:42:15.098Z,3.80
2022-11-22T04:47:10.516Z,3.42
2022-11-22T04:49:37.015Z,3.35
2022-11-22T04:52:23.363Z,2.83
2022-11-22T04:54:49.945Z,3.47
2022-11-22T04:57:16.716Z,3.40
2022-11-22T04:59:43.266Z,3.20
2022-11-22T05:02:09.804Z,2.97
2022-11-22T05:04:36.296Z,2.67
2022-11-22T05:07:02.927Z,2.80
2022-11-22T05:09:29.553Z,3.25
2022-11-22T05:11:56.259Z,3.22
2022-11-22T05:14:22.712Z,2.95
2022-11-22T05:16:49.219Z,2.85
2022-11-22T05:19:15.672Z,3.25
2022-11-22T05:21:42.163Z,2.47
2022-11-22T05:24:08.960Z,3.15
2022-11-22T05:26:36.528Z,2.95
2022-11-22T05:29:08.572Z,3.30
2022-11-22T05:31:37.178Z,3.35
2022-11-22T05:34:05.088Z,4.05
2022-11-22T05:36:33.513Z,3.28
2022-11-22T05:39:00.070Z,3.85
2022-11-22T05:41:26.671Z,3.42
2022-11-22T05:43:56.100Z,3.60
2022-11-22T05:46:26.432Z,3.55
2022-11-22T05:48:54.797Z,4.50
2022-11-22T05:51:24.252Z,4.50
2022-11-22T05:53:52.529Z,4.18
2022-11-22T05:56:21.507Z,5.07
2022-11-22T05:58:48.612Z,3.72
2022-11-22T06:01:18.372Z,4.05
2022-11-22T06:03:45.778Z,3.88
2022-11-22T06:06:12.996Z,4.15
2022-11-22T06:08:41.792Z,4.43
2022-11-22T06:11:16.219Z,3.72
2022-11-22T06:13:44.500Z,4.15
2022-11-22T06:16:12.009Z,3.97
2022-11-22T06:18:38.877Z,3.95
2022-11-22T06:21:07.791Z,2.97
2022-11-22T06:23:34.415Z,3.03
2022-11-22T06:26:06.905Z,2.80
2022-11-22T06:28:35.431Z,3.17
2022-11-22T06:31:07.152Z,2.53
2022-11-22T06:33:34.194Z,2.55
2022-11-22T06:36:11.032Z,3.13
2022-11-22T06:38:38.289Z,2.88
2022-11-22T06:41:07.315Z,2.53
2022-11-22T06:43:35.186Z,2.97
2022-11-22T06:46:03.856Z,2.60
2022-11-22T06:48:32.382Z,3.10
2022-11-22T06:51:01.981Z,3.30
2022-11-22T06:53:46.828Z,2.63
2022-11-22T06:56:25.067Z,2.90
2022-11-22T06:58:52.731Z,3.00
2022-11-22T07:01:24.995Z,3.40
2022-11-22T07:03:56.003Z,3.13
2022-11-22T07:06:22.480Z,3.03
2022-11-22T07:08:49.015Z,2.78
2022-11-22T07:11:18.161Z,3.08
2022-11-22T07:13:45.404Z,2.50
2022-11-22T07:16:14.480Z,2.95
2022-11-22T07:18:41.415Z,3.85
2022-11-22T07:21:13.211Z,3.70
2022-11-22T07:23:42.879Z,3.20
2022-11-22T07:26:10.076Z,3.80
2022-11-22T07:28:37.408Z,2.92
2022-11-22T07:31:06.692Z,2.80
2022-11-22T07:33:33.650Z,3.33
2022-11-22T07:36:08.796Z,3.45
2022-11-22T07:38:35.898Z,2.65
2022-11-22T07:41:03.051Z,3.00
2022-11-22T07:43:29.692Z,2.85
2022-11-22T07:46:03.977Z,3.78
2022-11-22T07:48:30.579Z,3.08
2022-11-22T07:50:57.210Z,3.08
2022-11-22T07:53:24.217Z,3.35
2022-11-22T07:55:50.714Z,2.92
2022-11-22T07:58:17.195Z,3.00
2022-11-22T08:00:43.653Z,4.45
2022-11-22T08:03:12.241Z,2.75
2022-11-22T08:05:42.148Z,3.17
2022-11-22T08:08:08.591Z,3.00
2022-11-22T08:10:35.158Z,3.08
2022-11-22T08:13:01.710Z,3.00
2022-11-22T08:15:28.375Z,3.03
2022-11-22T08:17:54.974Z,2.97
2022-11-22T08:20:21.574Z,3.20
2022-11-22T08:22:48.176Z,2.95
2022-11-22T08:25:14.651Z,2.97
2022-11-22T08:27:42.757Z,3.17
2022-11-22T08:30:11.107Z,3.13
2022-11-22T08:32:37.965Z,2.60
2022-11-22T08:35:05.099Z,3.15
2022-11-22T08:37:31.784Z,3.10
2022-11-22T08:39:58.369Z,3.40
2022-11-22T08:42:24.919Z,2.78
2022-11-22T08:44:51.483Z,3.50
2022-11-22T08:47:18.000Z,3.00
2022-11-22T08:49:44.495Z,2.83
2022-11-22T08:52:11.311Z,2.83
2022-11-22T08:54:38.361Z,3.05
2022-11-22T08:57:05.159Z,3.13
2022-11-22T08:59:32.190Z,2.67
2022-11-22T09:01:59.182Z,3.47
2022-11-22T09:04:25.747Z,3.08
2022-11-22T09:09:38.774Z,2.72
2022-11-22T09:12:05.812Z,2.58
2022-11-22T09:14:32.387Z,2.75
2022-11-22T09:16:58.948Z,2.72
2022-11-22T09:19:25.548Z,2.92
2022-11-22T09:21:52.018Z,2.72
2022-11-22T09:24:18.577Z,2.40
2022-11-22T09:26:45.064Z,2.65
2022-11-22T09:29:11.606Z,2.50
2022-11-22T09:31:38.590Z,2.45
2022-11-22T09:34:05.167Z,2.78
2022-11-22T09:36:31.704Z,2.75
2022-11-22T09:38:58.417Z,2.58
2022-11-22T09:41:45.049Z,2.13
2022-11-22T09:44:32.092Z,3.13
2022-11-22T09:47:17.934Z,2.80
2022-11-22T09:52:48.476Z,2.45
2022-11-22T09:55:28.989Z,2.50
2022-11-22T09:58:36.797Z,2.40
2022-11-22T10:01:42.362Z,2.30
2022-11-22T10:04:19.305Z,2.22
2022-11-22T10:06:51.355Z,2.08
2022-11-22T10:09:54.812Z,2.00
2022-11-22T10:12:31.948Z,1.77
2022-11-22T10:15:19.891Z,2.47
2022-11-22T10:17:49.396Z,1.98
2022-11-22T10:20:17.759Z,1.92
2022-11-22T10:22:58.489Z,1.60
2022-11-22T10:25:41.912Z,2.15
2022-11-22T10:28:23.244Z,1.55
2022-11-22T10:31:04.801Z,1.70
2022-11-22T10:33:44.350Z,1.83
2022-11-22T10:36:46.986Z,1.77
2022-11-22T10:39:18.113Z,1.58
2022-11-22T10:41:57.709Z,1.90
2022-11-22T10:44:30.104Z,1.65
2022-11-22T10:47:17.624Z,1.77
2022-11-22T10:50:00.753Z,1.75
2022-11-22T10:52:55.107Z,1.70
2022-11-22T10:55:42.925Z,1.70
2022-11-22T10:58:21.257Z,1.38
2022-11-22T11:00:56.031Z,1.73
2022-11-22T11:03:38.811Z,1.50
2022-11-22T11:06:26.260Z,1.60
2022-11-22T11:11:55.968Z,1.50
2022-11-22T11:15:00.588Z,1.40
2022-11-22T11:17:31.877Z,1.90
2022-11-22T11:20:03.459Z,1.20
2022-11-22T11:23:06.570Z,1.42
2022-11-22T11:25:34.935Z,1.00
2022-11-22T11:28:08.518Z,1.20
2022-11-22T11:30:46.056Z,1.00
2022-11-22T11:33:31.234Z,1.15
2022-11-22T11:36:04.290Z,1.15
2022-11-22T11:38:48.812Z,1.33
2022-11-22T11:41:32.927Z,1.63
2022-11-22T11:44:05.437Z,1.10
2022-11-22T11:46:40.908Z,1.00
2022-11-22T11:51:59.501Z,1.13
2022-11-22T11:54:30.607Z,1.00
2022-11-22T11:56:59.562Z,1.23
2022-11-22T11:59:43.953Z,0.75
2022-11-22T12:02:15.810Z,0.90
2022-11-22T12:04:50.370Z,0.65
2022-11-22T12:07:35.225Z,0.80
2022-11-22T12:10:23.117Z,0.70
2022-11-22T12:12:53.441Z,0.80
2022-11-22T12:15:26.846Z,0.57
2022-11-22T12:18:01.251Z,0.55
2022-11-22T12:20:59.156Z,0.88
2022-11-22T12:23:51.064Z,0.60
2022-11-22T12:26:18.410Z,0.93
2022-11-22T12:28:45.124Z,0.70
2022-11-22T12:31:15.488Z,0.68
2022-11-22T12:33:47.393Z,0.60
2022-11-22T12:36:33.224Z,0.60
2022-11-22T12:41:31.148Z,0.60
2022-11-22T12:44:06.887Z,0.60
2022-11-22T12:46:40.139Z,0.80
2022-11-22T12:49:18.863Z,0.55
2022-11-22T12:52:07.066Z,0.63
2022-11-22T12:54:40.422Z,0.70
2022-11-22T12:57:23.455Z,0.50
2022-11-22T13:00:02.686Z,0.50
2022-11-22T13:02:34.766Z,0.70
2022-11-22T13:05:23.932Z,0.70
2022-11-22T13:08:13.485Z,0.95
2022-11-22T13:10:46.513Z,0.60
2022-11-22T13:13:21.603Z,0.80
2022-11-22T13:15:51.266Z,0.90
2022-11-22T13:18:18.029Z,0.68
2022-11-22T13:20:54.760Z,0.60
2022-11-22T13:23:41.560Z,0.80
2022-11-22T13:26:18.620Z,0.90
2022-11-22T13:28:45.778Z,0.70
2022-11-22T13:31:12.286Z,0.70
2022-11-22T13:33:52.706Z,0.70
2022-11-22T13:36:25.007Z,0.85
2022-11-22T13:38:54.445Z,0.68
2022-11-22T13:41:23.118Z,0.80
2022-11-22T13:43:55.993Z,0.60
2022-11-22T13:46:50.240Z,0.80
2022-11-22T13:49:32.530Z,0.60
2022-11-22T13:52:12.433Z,0.75
2022-11-22T13:54:59.000Z,0.57
2022-11-22T13:57:34.674Z,0.63
2022-11-22T14:00:12.965Z,0.55
2022-11-22T14:03:19.664Z,0.52
2022-11-22T14:08:37.224Z,0.70
2022-11-22T14:11:39.083Z,0.73
2022-11-22T14:14:21.364Z,0.52
2022-11-22T14:17:08.061Z,0.65
2022-11-22T14:19:53.552Z,0.73
2022-11-22T14:22:38.025Z,0.70
2022-11-22T14:25:31.329Z,0.75
2022-11-22T14:28:04.297Z,0.70
2022-11-22T14:30:53.585Z,0.77
2022-11-22T14:33:25.561Z,0.60
2022-11-22T14:36:06.995Z,0.47
2022-11-22T14:38:35.694Z,0.63
2022-11-22T14:41:39.760Z,0.55
2022-11-22T14:44:18.247Z,0.60
2022-11-22T14:47:04.507Z,0.55
2022-11-22T14:49:46.768Z,0.55
2022-11-22T14:52:25.831Z,0.60
2022-11-22T14:54:56.971Z,0.60
2022-11-22T14:57:26.390Z,0.80
2022-11-22T15:00:14.634Z,0.50
2022-11-22T15:02:59.226Z,0.60
2022-11-22T15:09:11.059Z,0.85
2022-11-22T15:09:11.524Z,0.50
2022-11-22T15:11:39.228Z,0.50
2022-11-22T15:14:17.890Z,0.40
2022-11-22T15:59:43.705Z,0.60
2022-11-22T16:02:15.861Z,0.60
2022-11-22T16:06:04.680Z,0.70
2022-11-22T16:07:48.085Z,0.63
2022-11-22T16:10:40.147Z,0.60
2022-11-22T16:13:18.599Z,0.80
2022-11-22T16:16:02.936Z,0.98
2022-11-22T16:18:29.458Z,1.20
2022-11-22T16:20:59.678Z,1.17
2022-11-22T16:23:28.467Z,1.40
2022-11-22T16:25:58.502Z,1.10
2022-11-22T16:28:31.107Z,1.45
2022-11-22T16:31:06.229Z,1.40
2022-11-22T16:33:33.048Z,1.85
2022-11-22T16:36:01.476Z,1.70
2022-11-22T16:38:28.679Z,1.70
2022-11-22T16:40:57.517Z,2.20
2022-11-22T16:43:25.776Z,2.00
2022-11-22T16:45:52.700Z,2.25
2022-11-22T16:48:32.176Z,2.38
2022-11-22T16:51:03.339Z,2.20
2022-11-22T16:53:37.948Z,2.40
2022-11-22T16:56:04.573Z,2.10
2022-11-22T16:58:31.291Z,2.63
2022-11-22T17:00:59.504Z,2.30
2022-11-22T17:03:29.643Z,2.60
2022-11-22T17:05:56.090Z,2.65
2022-11-22T17:08:22.555Z,2.50
2022-11-22T17:10:50.807Z,2.90
2022-11-22T17:13:26.591Z,3.00
2022-11-22T17:15:55.036Z,3.13
2022-11-22T17:18:21.888Z,2.90
2022-11-22T17:20:48.964Z,2.88
2022-11-22T17:23:31.234Z,2.85
2022-11-22T17:25:57.768Z,2.65
2022-11-22T17:28:24.391Z,2.70
2022-11-22T17:30:51.492Z,2.80
2022-11-22T17:33:18.008Z,2.47
2022-11-22T17:35:44.712Z,2.58
2022-11-22T17:38:12.136Z,2.42
2022-11-22T17:40:38.963Z,2.35
2022-11-22T17:43:05.559Z,2.25
2022-11-22T17:45:32.210Z,2.10
2022-11-22T17:47:58.666Z,2.20
2022-11-22T17:50:25.238Z,2.28
2022-11-22T17:52:52.785Z,1.90
2022-11-22T17:55:19.419Z,2.35
2022-11-22T17:57:45.963Z,2.25
2022-11-22T18:00:14.157Z,2.17
2022-11-22T18:02:40.841Z,2.05
2022-11-22T18:05:09.691Z,2.30
2022-11-22T18:07:38.513Z,2.00
2022-11-22T18:10:09.831Z,2.70
2022-11-22T18:12:58.684Z,1.85
2022-11-22T18:15:26.882Z,2.30
2022-11-22T18:17:53.463Z,2.50
2022-11-22T18:20:19.972Z,2.33
2022-11-22T18:22:46.420Z,2.35
2022-11-22T18:25:13.047Z,2.33
2022-11-22T18:27:42.329Z,2.30
2022-11-22T18:30:09.837Z,2.38
2022-11-22T18:32:36.379Z,2.35
2022-11-22T18:35:02.961Z,2.28
2022-11-22T18:37:29.523Z,2.70
2022-11-22T18:39:56.206Z,2.67
2022-11-22T18:42:23.455Z,2.38
2022-11-22T18:44:49.949Z,2.40
2022-11-22T18:47:17.012Z,2.65
2022-11-22T18:49:43.549Z,2.70
2022-11-22T18:52:13.327Z,3.95
2022-11-22T18:54:43.037Z,3.35
2022-11-22T18:57:09.493Z,2.70
2022-11-22T18:59:36.006Z,2.72
2022-11-22T19:02:02.504Z,3.28
2022-11-22T19:04:30.779Z,3.83
2022-11-22T19:06:57.641Z,3.38
2022-11-22T19:09:24.139Z,3.63
2022-11-22T19:11:55.528Z,3.47
2022-11-22T19:14:24.785Z,4.15
2022-11-22T19:16:51.273Z,3.88
2022-11-22T19:19:17.842Z,3.58
2022-11-22T19:21:44.333Z,4.00
2022-11-22T19:24:10.919Z,4.10
2022-11-22T19:26:37.542Z,3.83
2022-11-22T19:29:04.919Z,4.10
2022-11-22T19:31:31.813Z,3.97
2022-11-22T19:33:59.485Z,4.10
2022-11-22T19:36:32.594Z,4.30
2022-11-22T19:39:00.863Z,4.05
2022-11-22T19:41:27.437Z,4.20
2022-11-22T19:43:58.704Z,4.20
2022-11-22T19:46:26.000Z,5.88
2022-11-22T19:48:54.221Z,9.68
2022-11-22T19:51:21.776Z,7.40
2022-11-22T19:53:49.252Z,6.15
2022-11-22T19:56:18.277Z,4.40
2022-11-22T19:58:50.866Z,4.38
2022-11-22T20:01:18.255Z,4.10
2022-11-22T20:03:48.004Z,4.00
2022-11-22T20:06:14.550Z,3.90
2022-11-22T20:08:41.284Z,3.45
2022-11-22T20:11:13.158Z,3.40
2022-11-22T20:13:42.720Z,3.15
2022-11-22T20:16:16.105Z,3.65
2022-11-22T20:18:43.091Z,3.03
2022-11-22T20:21:11.088Z,4.03
2022-11-22T20:23:38.540Z,3.58
2022-11-22T20:26:11.083Z,3.80
2022-11-22T20:28:39.069Z,3.70
2022-11-22T20:31:13.693Z,3.47
2022-11-22T20:33:42.359Z,3.40
2022-11-22T20:36:12.587Z,4.13
2022-11-22T20:38:41.148Z,3.50
2022-11-22T20:41:09.729Z,3.40
2022-11-22T20:43:36.803Z,3.45
2022-11-22T20:46:06.367Z,3.72
2022-11-22T20:48:34.165Z,3.90
2022-11-22T20:51:02.434Z,4.35
2022-11-22T20:53:29.545Z,3.45
2022-11-22T20:55:56.231Z,3.45
2022-11-22T20:58:25.948Z,4.03
2022-11-22T21:00:53.578Z,3.17
2022-11-22T21:03:20.332Z,3.55
2022-11-22T21:05:50.300Z,3.45
2022-11-22T21:08:16.885Z,3.95
2022-11-22T21:10:43.661Z,3.53
2022-11-22T21:13:10.259Z,3.60
2022-11-22T21:15:36.730Z,3.40
2022-11-22T21:18:24.054Z,4.18
2022-11-22T21:20:51.151Z,3.40
2022-11-22T21:23:18.000Z,3.75
2022-11-22T21:25:44.472Z,4.00
2022-11-22T21:28:11.095Z,3.45
2022-11-22T21:30:37.536Z,4.28
2022-11-22T21:33:04.112Z,4.15
2022-11-22T21:35:30.950Z,3.22
2022-11-22T21:37:57.524Z,4.05
2022-11-22T21:40:24.017Z,4.65
2022-11-22T21:42:50.511Z,4.13
2022-11-22T21:45:17.036Z,3.53
2022-11-22T21:47:43.495Z,3.75
2022-11-22T21:50:11.755Z,3.33
2022-11-22T21:52:38.519Z,3.08
2022-11-22T21:55:05.447Z,3.47
2022-11-22T21:57:33.259Z,4.07
2022-11-22T21:59:59.748Z,3.75
2022-11-22T22:02:29.439Z,3.10
2022-11-22T22:04:55.972Z,3.60
2022-11-22T22:07:50.719Z,4.32
2022-11-22T22:10:09.322Z,5.18
2022-11-22T22:12:35.767Z,6.82
2022-11-22T22:15:02.976Z,7.05
2022-11-22T22:17:29.452Z,8.20
2022-11-22T22:19:55.957Z,8.30
2022-11-22T22:22:22.542Z,9.43
2022-11-22T22:24:49.017Z,11.00
2022-11-22T22:27:15.540Z,11.55
2022-11-22T22:29:41.995Z,11.27
2022-11-22T22:32:10.735Z,11.40
2022-11-22T22:34:37.427Z,10.88
2022-11-22T22:37:03.883Z,11.18
2022-11-22T22:39:30.954Z,11.82
2022-11-22T22:41:57.550Z,10.55
2022-11-22T22:44:24.102Z,10.30
2022-11-22T22:46:50.602Z,8.02
2022-11-22T22:49:17.116Z,8.15
2022-11-22T22:51:43.561Z,7.72
2022-11-22T22:54:10.304Z,8.07
2022-11-22T22:56:36.931Z,5.68
2022-11-22T22:59:05.148Z,5.95
2022-11-22T23:01:32.081Z,5.95
2022-11-22T23:04:01.409Z,4.80
2022-11-22T23:06:33.395Z,5.40
2022-11-22T23:09:00.213Z,4.38
2022-11-22T23:11:48.344Z,4.20
2022-11-22T23:14:18.768Z,4.03
2022-11-22T23:16:45.385Z,3.90
2022-11-22T23:19:12.482Z,4.40
2022-11-22T23:21:39.413Z,4.60
2022-11-22T23:24:06.996Z,4.00
2022-11-22T23:26:33.932Z,4.57
2022-11-22T23:29:00.663Z,4.20
2022-11-22T23:31:27.468Z,4.63
2022-11-22T23:33:53.979Z,4.55
2022-11-22T23:36:21.793Z,4.95
2022-11-22T23:38:48.572Z,5.13
2022-11-22T23:41:19.851Z,5.07
2022-11-22T23:43:47.768Z,5.55
2022-11-22T23:46:17.915Z,5.63
2022-11-22T23:48:45.846Z,5.38
2022-11-22T23:51:13.326Z,5.45
2022-11-22T23:53:39.844Z,4.93
2022-11-22T23:56:08.103Z,5.03
2022-11-22T23:58:35.111Z,5.18
